Aeroporto :
LOGIN :

Iscrizione | Disclaimer

   EN    FR    IT 

 










Sommario :    VFR   VFR Marginale   IFR   IFR Intensivo   IFR Molto Intensivo
Visibilità : 
Base nubi : 
>= 8 km
>= 3000ft
5 / 8 km
1000 / 3000 ft
1500m / 5 km
500 / 1000 ft
800 / 1500m
200 / 500 ft
< 800m
< 200 ft
Simboli :   Temporali  Nebbia  Neve Forte  Precipitazioni Forti  Vento > 20 kt
SIGMETs :   Varie  Temporali  Ghiacco  Turbolenza  Onda orograficha  Ceneri Vulcaniche







- Altitudine del aeroporto : 120 ft
- Codice IATA : MME
- Carte del aeroporto


EGNV - Durham Tees valley

ULTIMO METAR :
  • 192050Z 28005KT CAVOK 16/11 Q1023

METARs OBSOLETI :
  • 192020Z 30006KT CAVOK 17/10 Q1023
  • 191950Z 35005KT 320V020 CAVOK 18/10 Q1023
  • 191920Z 31005KT CAVOK 19/10 Q1023
  • 191850Z 28006KT CAVOK 20/09 Q1022
  • 191820Z 27008KT CAVOK 21/09 Q1022

Previsioni scadute.
ATIS : +44 9012 018 111
Nessun NOTAM noto per questo aeroporto.



MetMap, La meteo Aeronautica in un colpo d'occhio ! - Copyright ORBIFLY Dicembre 2007 - Disclaimer

ORBIFLY MET'MAP TEAM :

Programmazione e sviluppo : Alexandra Zaïnal
Concezione e sviluppo : Baudouin d'Aumeries
Co-Programmazione e sviluppo : Marc-Olivier Méhu
Supporto tecnico e logistico : Manuel Goepfert
Aiuto per la traduzione : Arnaldo La Scala

Contatto : metmap@orbifly.com




FONTI E CREDITI :

   NOAA